Time;durP1;ratioP1;P1;durP2;ratioP2;P2;SDS_P1;SDS_P2;PMS_P1;PMS_P2;Temp;Humidity;BMP_temperature;BMP_pressure;BME280_temperature;BME280_humidity;BME280_pressure;Samples;Min_cycle;Max_cycle;Signal;HPM_P1;HPM_P2
2023/02/08 00:01:48;;;;;;;10.20;9.52;;;;;;;;;;4997747;28;20422;-48
2023/02/08 00:04:13;;;;;;;9.65;8.95;;;;;;;;;;4992884;28;20038;-50
2023/02/08 00:06:38;;;;;;;10.35;9.65;;;;;;;;;;5004772;28;20796;-48
2023/02/08 00:09:04;;;;;;;10.95;10.18;;;;;;;;;;4998494;28;20117;-47
2023/02/08 00:11:29;;;;;;;9.60;9.00;;;;;;;;;;5003323;28;20519;-49
2023/02/08 00:13:54;;;;;;;10.55;9.75;;;;;;;;;;4997692;28;20044;-50
2023/02/08 00:16:20;;;;;;;9.35;8.68;;;;;;;;;;4997716;28;20077;-48
2023/02/08 00:18:45;;;;;;;9.57;8.77;;;;;;;;;;4996980;28;20099;-48
2023/02/08 00:21:13;;;;;;;9.00;8.40;;;;;;;;;;4997216;28;20078;-50
2023/02/08 00:23:39;;;;;;;10.90;10.00;;;;;;;;;;4994511;28;20038;-47
2023/02/08 00:26:05;;;;;;;9.27;8.63;;;;;;;;;;4998353;28;20033;-49
2023/02/08 00:28:31;;;;;;;9.65;8.95;;;;;;;;;;4996337;28;20360;-50
2023/02/08 00:30:56;;;;;;;9.98;9.27;;;;;;;;;;4995919;28;20526;-48
2023/02/08 00:33:21;;;;;;;12.00;10.93;;;;;;;;;;4998642;28;20092;-51
2023/02/08 00:35:47;;;;;;;8.77;8.18;;;;;;;;;;5010507;28;20030;-50
2023/02/08 00:38:12;;;;;;;10.02;9.32;;;;;;;;;;4995661;28;20042;-48
2023/02/08 00:40:38;;;;;;;11.55;10.70;;;;;;;;;;5000892;28;20384;-51
2023/02/08 00:43:03;;;;;;;10.00;9.30;;;;;;;;;;4996733;28;20487;-52
2023/02/08 00:45:29;;;;;;;9.77;9.13;;;;;;;;;;4997361;28;20463;-48
2023/02/08 00:47:54;;;;;;;9.95;9.25;;;;;;;;;;4996997;28;20034;-50
2023/02/08 00:50:20;;;;;;;9.75;8.95;;;;;;;;;;4999033;28;20049;-48
2023/02/08 00:52:45;;;;;;;9.27;8.45;;;;;;;;;;4996711;28;20046;-50
2023/02/08 00:55:10;;;;;;;10.70;10.00;;;;;;;;;;4995207;28;20045;-49
2023/02/08 00:57:36;;;;;;;10.60;9.80;;;;;;;;;;4996986;28;20030;-48
2023/02/08 01:00:04;;;;;;;10.00;9.30;;;;;;;;;;4995721;28;20041;-47
2023/02/08 01:02:30;;;;;;;9.68;8.85;;;;;;;;;;4995164;28;20045;-47
2023/02/08 01:04:55;;;;;;;8.65;8.10;;;;;;;;;;4995351;28;20041;-50
2023/02/08 01:07:21;;;;;;;10.45;9.75;;;;;;;;;;4994879;28;20085;-50
2023/02/08 01:09:46;;;;;;;10.18;9.48;;;;;;;;;;4996122;28;20069;-47
2023/02/08 01:12:11;;;;;;;9.75;9.13;;;;;;;;;;4998236;28;20040;-47
2023/02/08 01:14:38;;;;;;;10.10;9.40;;;;;;;;;;4994273;28;20070;-47
2023/02/08 01:17:04;;;;;;;10.60;9.70;;;;;;;;;;4996695;28;20065;-48
2023/02/08 01:19:29;;;;;;;10.98;10.27;;;;;;;;;;4994164;28;20449;-48
2023/02/08 01:21:55;;;;;;;10.18;9.48;;;;;;;;;;4994944;28;20038;-52
2023/02/08 01:24:20;;;;;;;10.25;9.45;;;;;;;;;;4997572;28;20052;-47
2023/02/08 01:26:46;;;;;;;9.52;8.90;;;;;;;;;;4995141;28;20038;-48
2023/02/08 01:29:11;;;;;;;10.43;9.73;;;;;;;;;;4994636;28;20053;-48
2023/02/08 01:31:38;;;;;;;10.38;9.68;;;;;;;;;;4995943;28;20417;-46
2023/02/08 01:34:04;;;;;;;11.07;10.30;;;;;;;;;;4994153;28;20036;-48
2023/02/08 01:36:31;;;;;;;11.45;10.68;;;;;;;;;;4996865;28;20153;-50
2023/02/08 01:38:57;;;;;;;11.18;10.38;;;;;;;;;;4995858;28;20472;-48
2023/02/08 01:41:31;;;;;;;11.25;10.45;;;;;;;;;;4996503;28;20097;-47
2023/02/08 01:44:03;;;;;;;9.95;9.25;;;;;;;;;;4991666;28;20033;-47
2023/02/08 01:46:29;;;;;;;;;;;;;;;;;;4994333;28;20034;-49
2023/02/08 01:48:59;;;;;;;12.27;11.32;;;;;;;;;;4991545;28;19913;-50
2023/02/08 01:51:29;;;;;;;12.40;11.60;;;;;;;;;;4996822;28;20048;-47
2023/02/08 01:53:56;;;;;;;10.90;10.10;;;;;;;;;;5001115;28;20038;-49
2023/02/08 01:56:29;;;;;;;9.77;9.18;;;;;;;;;;4995075;28;20712;-47
2023/02/08 01:58:58;;;;;;;9.95;9.35;;;;;;;;;;4994419;28;20468;-48
2023/02/08 02:01:26;;;;;;;9.23;8.63;;;;;;;;;;4993615;28;20042;-48
2023/02/08 02:03:51;;;;;;;10.43;9.73;;;;;;;;;;4996158;28;20034;-49
2023/02/08 02:06:22;;;;;;;10.85;10.13;;;;;;;;;;4995276;28;20040;-52
2023/02/08 02:09:00;;;;;;;11.88;10.82;;;;;;;;;;4993938;28;20121;-48
2023/02/08 02:11:27;;;;;;;11.23;10.43;;;;;;;;;;4995901;28;20042;-49
2023/02/08 02:13:53;;;;;;;11.75;10.95;;;;;;;;;;4995138;28;20041;-53
2023/02/08 02:16:18;;;;;;;10.60;9.80;;;;;;;;;;4996166;28;20105;-57
2023/02/08 02:18:43;;;;;;;16.42;11.55;;;;;;;;;;4994205;28;20408;-49
2023/02/08 02:21:16;;;;;;;11.55;10.73;;;;;;;;;;4994927;28;20046;-48
2023/02/08 02:23:54;;;;;;;10.55;9.75;;;;;;;;;;4994966;28;20034;-51
2023/02/08 02:26:46;;;;;;;10.73;9.98;;;;;;;;;;4995207;28;20537;-53
2023/02/08 02:29:30;;;;;;;10.13;9.27;;;;;;;;;;4995350;28;20365;-48
2023/02/08 02:32:20;;;;;;;10.25;9.55;;;;;;;;;;4993533;28;20076;-52
2023/02/08 02:35:00;;;;;;;11.13;10.32;;;;;;;;;;4993232;28;20107;-52
2023/02/08 02:37:37;;;;;;;12.20;11.30;;;;;;;;;;4995902;28;20379;-47
2023/02/08 02:40:20;;;;;;;12.68;11.60;;;;;;;;;;4994096;28;20034;-50
2023/02/08 02:46:15;;;;;;;11.25;10.55;;;;;;;;;;4995031;28;20042;-49
2023/02/08 02:48:57;;;;;;;10.27;9.52;;;;;;;;;;5000756;28;20034;-50
2023/02/08 02:51:52;;;;;;;10.38;9.68;;;;;;;;;;4997973;28;20045;-52
2023/02/08 02:54:44;;;;;;;10.85;9.95;;;;;;;;;;4996668;28;20451;-50
2023/02/08 02:57:11;;;;;;;;;;;;;;;;;;5000089;28;20045;-49
2023/02/08 02:59:38;;;;;;;11.15;10.15;;;;;;;;;;4997162;28;20051;-53
2023/02/08 03:02:04;;;;;;;9.90;9.20;;;;;;;;;;4999934;28;20049;-50
2023/02/08 03:04:33;;;;;;;11.13;10.23;;;;;;;;;;5001837;28;20068;-48
2023/02/08 03:07:06;;;;;;;11.10;10.05;;;;;;;;;;5000685;28;20038;-50
2023/02/08 03:10:04;;;;;;;10.75;10.05;;;;;;;;;;4999990;28;20061;-49
2023/02/08 03:12:48;;;;;;;11.68;10.75;;;;;;;;;;4998998;28;20053;-48
2023/02/08 03:15:38;;;;;;;14.10;12.85;;;;;;;;;;4999482;28;20038;-52
2023/02/08 03:18:13;;;;;;;10.07;9.48;;;;;;;;;;4995875;28;20046;-48
2023/02/08 03:21:05;;;;;;;10.75;10.05;;;;;;;;;;4999610;28;20073;-50
2023/02/08 03:23:35;;;;;;;10.65;9.95;;;;;;;;;;4998971;28;20057;-49
2023/02/08 03:26:14;;;;;;;10.07;9.38;;;;;;;;;;4998004;28;20030;-49
2023/02/08 03:28:50;;;;;;;12.35;11.52;;;;;;;;;;4997294;28;20038;-48
2023/02/08 03:31:29;;;;;;;10.60;9.90;;;;;;;;;;4998668;28;20045;-48
2023/02/08 03:34:06;;;;;;;12.43;11.40;;;;;;;;;;4994260;28;20046;-51
2023/02/08 03:36:43;;;;;;;11.18;10.48;;;;;;;;;;4996662;28;20135;-50
2023/02/08 03:39:14;;;;;;;9.82;9.23;;;;;;;;;;4999555;28;20057;-51
2023/02/08 03:41:43;;;;;;;9.48;8.85;;;;;;;;;;4999283;28;20506;-51
2023/02/08 03:44:14;;;;;;;9.60;8.90;;;;;;;;;;4998483;28;20465;-50
2023/02/08 03:46:45;;;;;;;11.32;10.45;;;;;;;;;;5011591;28;20041;-49
2023/02/08 03:49:15;;;;;;;11.82;11.02;;;;;;;;;;5000140;28;20108;-51
2023/02/08 03:51:43;;;;;;;10.77;10.00;;;;;;;;;;4999350;28;20195;-49
2023/02/08 03:54:13;;;;;;;10.00;9.27;;;;;;;;;;4995393;28;20203;-50
2023/02/08 03:57:06;;;;;;;10.33;9.53;;;;;;;;;;4995427;28;20046;-49
2023/02/08 03:59:38;;;;;;;9.48;8.88;;;;;;;;;;4996413;28;20044;-49
2023/02/08 04:02:07;;;;;;;16.40;10.13;;;;;;;;;;4997128;28;20044;-53
2023/02/08 04:04:36;;;;;;;12.05;11.15;;;;;;;;;;4996661;28;20073;-51
2023/02/08 04:07:01;;;;;;;12.15;11.10;;;;;;;;;;4994592;28;20054;-47
2023/02/08 04:09:27;;;;;;;9.45;8.85;;;;;;;;;;4997354;28;20042;-47
2023/02/08 04:11:52;;;;;;;11.20;10.50;;;;;;;;;;4996214;28;20046;-48
2023/02/08 04:14:18;;;;;;;9.88;9.18;;;;;;;;;;4998957;28;20136;-51
2023/02/08 04:16:43;;;;;;;10.70;10.00;;;;;;;;;;5000113;28;20061;-50
2023/02/08 04:19:08;;;;;;;13.80;12.80;;;;;;;;;;4996347;28;20033;-47
2023/02/08 04:21:34;;;;;;;10.55;9.85;;;;;;;;;;4999145;28;20131;-48
2023/02/08 04:23:59;;;;;;;9.48;8.75;;;;;;;;;;4997562;28;20050;-48
2023/02/08 04:26:25;;;;;;;10.10;9.40;;;;;;;;;;4996816;28;20038;-49
2023/02/08 04:28:50;;;;;;;10.65;9.95;;;;;;;;;;5002664;28;20041;-51
2023/02/08 04:31:16;;;;;;;11.85;9.90;;;;;;;;;;4997252;28;20034;-52
2023/02/08 04:33:41;;;;;;;9.65;9.02;;;;;;;;;;4994121;28;20034;-49
2023/02/08 04:36:07;;;;;;;11.27;10.57;;;;;;;;;;4997603;28;21144;-51
2023/02/08 04:38:32;;;;;;;11.05;10.35;;;;;;;;;;4993930;28;20034;-48
2023/02/08 04:40:58;;;;;;;11.50;10.70;;;;;;;;;;4995593;28;20035;-49
2023/02/08 04:43:23;;;;;;;10.10;9.40;;;;;;;;;;4997586;28;20117;-52
2023/02/08 04:45:50;;;;;;;10.02;9.40;;;;;;;;;;4995811;28;20061;-49
2023/02/08 04:48:15;;;;;;;10.85;10.15;;;;;;;;;;4997554;28;20049;-50
2023/02/08 04:50:41;;;;;;;10.23;9.45;;;;;;;;;;4999511;28;20041;-48
2023/02/08 04:53:06;;;;;;;9.55;8.95;;;;;;;;;;4996594;28;20049;-50
2023/02/08 04:55:32;;;;;;;10.55;9.85;;;;;;;;;;4996380;28;20607;-47
2023/02/08 04:57:57;;;;;;;10.32;9.43;;;;;;;;;;4996702;28;20034;-46
2023/02/08 05:00:23;;;;;;;11.90;10.98;;;;;;;;;;4994634;28;20030;-48
2023/02/08 05:02:52;;;;;;;11.50;10.80;;;;;;;;;;4994344;28;20029;-49
2023/02/08 05:05:18;;;;;;;11.73;11.00;;;;;;;;;;4995350;28;20689;-46
2023/02/08 05:07:43;;;;;;;11.55;10.75;;;;;;;;;;4996629;28;20161;-49
2023/02/08 05:10:09;;;;;;;11.40;10.68;;;;;;;;;;4995517;28;20478;-52
2023/02/08 05:12:34;;;;;;;11.20;10.43;;;;;;;;;;4996865;28;20453;-50
2023/02/08 05:14:59;;;;;;;10.95;10.25;;;;;;;;;;4995610;28;20037;-49
2023/02/08 05:17:25;;;;;;;12.23;11.23;;;;;;;;;;4999434;28;20038;-50
2023/02/08 05:19:50;;;;;;;11.18;10.45;;;;;;;;;;4996217;28;20068;-48
2023/02/08 05:22:15;;;;;;;11.02;10.30;;;;;;;;;;4997857;28;20030;-50
2023/02/08 05:24:41;;;;;;;10.68;9.98;;;;;;;;;;4995130;28;20030;-50
2023/02/08 05:27:06;;;;;;;10.82;10.15;;;;;;;;;;5000521;28;20034;-52
2023/02/08 05:29:32;;;;;;;9.85;9.23;;;;;;;;;;4998310;28;20033;-52
2023/02/08 05:31:57;;;;;;;10.05;9.45;;;;;;;;;;4995200;28;20034;-51
2023/02/08 05:34:22;;;;;;;12.45;11.32;;;;;;;;;;4993952;28;20114;-51
2023/02/08 05:36:48;;;;;;;11.88;11.02;;;;;;;;;;5003487;28;20033;-51
2023/02/08 05:39:13;;;;;;;11.23;10.43;;;;;;;;;;4995291;28;20455;-52
2023/02/08 05:41:38;;;;;;;11.68;10.98;;;;;;;;;;4994812;28;20034;-49
2023/02/08 05:44:04;;;;;;;11.63;10.82;;;;;;;;;;4993816;28;20041;-48
2023/02/08 05:46:29;;;;;;;11.05;10.32;;;;;;;;;;4993752;28;20037;-49
2023/02/08 05:48:55;;;;;;;11.32;10.63;;;;;;;;;;4995296;28;20037;-49
2023/02/08 05:51:20;;;;;;;12.88;12.02;;;;;;;;;;4996579;28;20037;-48
2023/02/08 05:53:45;;;;;;;10.93;10.23;;;;;;;;;;4994248;28;20026;-48
2023/02/08 05:56:11;;;;;;;10.85;10.10;;;;;;;;;;4994943;28;20125;-47
2023/02/08 05:58:36;;;;;;;11.63;10.93;;;;;;;;;;4996184;28;20075;-47
2023/02/08 06:01:10;;;;;;;12.75;11.82;;;;;;;;;;4995815;28;20204;-48
2023/02/08 06:03:37;;;;;;;13.15;12.25;;;;;;;;;;4994450;28;20052;-47
2023/02/08 06:06:03;;;;;;;12.65;11.63;;;;;;;;;;4995074;28;20597;-47
2023/02/08 06:08:28;;;;;;;11.05;10.35;;;;;;;;;;4994451;28;20108;-48
2023/02/08 06:10:53;;;;;;;11.07;10.38;;;;;;;;;;4996076;28;20476;-48
2023/02/08 06:13:18;;;;;;;12.38;11.57;;;;;;;;;;4994245;28;20109;-48
2023/02/08 06:15:44;;;;;;;11.52;10.73;;;;;;;;;;4995478;28;20076;-47
2023/02/08 06:18:10;;;;;;;9.82;9.23;;;;;;;;;;4994258;28;20030;-47
2023/02/08 06:20:36;;;;;;;10.05;9.45;;;;;;;;;;4993196;28;20058;-51
2023/02/08 06:23:02;;;;;;;10.68;9.88;;;;;;;;;;4996892;28;20034;-49
2023/02/08 06:25:27;;;;;;;12.05;11.15;;;;;;;;;;4994447;28;20554;-50
2023/02/08 06:27:52;;;;;;;10.50;9.77;;;;;;;;;;4995817;28;20136;-50
2023/02/08 06:30:18;;;;;;;10.82;9.98;;;;;;;;;;4997377;28;20065;-47
2023/02/08 06:32:43;;;;;;;11.98;11.15;;;;;;;;;;4995863;28;20049;-50
2023/02/08 06:35:09;;;;;;;10.43;9.73;;;;;;;;;;4995895;28;20095;-47
2023/02/08 06:37:34;;;;;;;10.68;9.98;;;;;;;;;;4993762;28;20522;-50
2023/02/08 06:40:00;;;;;;;11.13;10.43;;;;;;;;;;4994250;28;20034;-50
2023/02/08 06:42:26;;;;;;;10.43;9.75;;;;;;;;;;4991320;28;20030;-50
2023/02/08 06:44:54;;;;;;;12.57;11.60;;;;;;;;;;4992155;28;20053;-50
2023/02/08 06:47:20;;;;;;;11.93;10.90;;;;;;;;;;4997528;28;20049;-49
2023/02/08 06:49:45;;;;;;;10.23;9.52;;;;;;;;;;4994260;28;20064;-47
2023/02/08 06:52:11;;;;;;;9.98;9.38;;;;;;;;;;4995926;28;20131;-50
2023/02/08 06:54:36;;;;;;;11.40;10.60;;;;;;;;;;4996906;28;20030;-47
2023/02/08 06:57:01;;;;;;;11.18;10.48;;;;;;;;;;4994861;28;20049;-59
2023/02/08 06:59:27;;;;;;;11.20;10.40;;;;;;;;;;4995676;28;20044;-59
2023/02/08 07:01:52;;;;;;;10.35;9.70;;;;;;;;;;4998495;28;20413;-59
2023/02/08 07:04:18;;;;;;;12.90;11.80;;;;;;;;;;4995583;28;20038;-59
2023/02/08 07:06:47;;;;;;;12.18;10.68;;;;;;;;;;4995818;28;20046;-59
2023/02/08 07:09:13;;;;;;;10.65;9.95;;;;;;;;;;4991577;28;20683;-47
2023/02/08 07:11:38;;;;;;;13.23;12.32;;;;;;;;;;4992914;28;20034;-48
2023/02/08 07:14:03;;;;;;;9.73;9.02;;;;;;;;;;4991725;28;20030;-51
2023/02/08 07:16:29;;;;;;;10.73;10.02;;;;;;;;;;4994803;28;20116;-46
2023/02/08 07:18:54;;;;;;;13.50;12.32;;;;;;;;;;4995516;28;20041;-48
2023/02/08 07:21:20;;;;;;;11.48;10.57;;;;;;;;;;5002186;28;20033;-59
2023/02/08 07:23:46;;;;;;;10.43;9.75;;;;;;;;;;4992617;28;20473;-58
2023/02/08 07:26:13;;;;;;;10.98;10.20;;;;;;;;;;4993833;28;20123;-59
2023/02/08 07:28:39;;;;;;;11.05;10.23;;;;;;;;;;4994040;28;20100;-47
2023/02/08 07:31:13;;;;;;;10.55;9.85;;;;;;;;;;4996791;28;20480;-51
2023/02/08 07:33:39;;;;;;;10.90;9.95;;;;;;;;;;4996152;28;20023;-59
2023/02/08 07:36:06;;;;;;;10.35;9.65;;;;;;;;;;4998201;28;20571;-58
2023/02/08 07:38:32;;;;;;;9.13;8.52;;;;;;;;;;4995666;28;20073;-59
2023/02/08 07:41:03;;;;;;;10.15;9.35;;;;;;;;;;4997128;28;20037;-59
2023/02/08 07:43:28;;;;;;;10.07;9.40;;;;;;;;;;4999472;28;20038;-59
2023/02/08 07:45:54;;;;;;;10.35;9.75;;;;;;;;;;4998638;28;20472;-49
2023/02/08 07:48:19;;;;;;;10.45;9.70;;;;;;;;;;4997721;28;20124;-52
2023/02/08 07:50:44;;;;;;;9.73;9.02;;;;;;;;;;4998096;28;20049;-47
2023/02/08 07:53:10;;;;;;;10.70;10.00;;;;;;;;;;4995055;28;20034;-48
2023/02/08 07:55:35;;;;;;;8.98;8.38;;;;;;;;;;4993789;28;20038;-59
2023/02/08 07:58:00;;;;;;;10.10;9.50;;;;;;;;;;4996242;28;20030;-59
2023/02/08 08:00:26;;;;;;;9.82;9.02;;;;;;;;;;4996119;28;20034;-59
2023/02/08 08:02:52;;;;;;;11.63;10.65;;;;;;;;;;4996890;28;20022;-59
2023/02/08 08:05:17;;;;;;;10.23;9.52;;;;;;;;;;4996609;28;20034;-59
2023/02/08 08:07:42;;;;;;;10.90;10.20;;;;;;;;;;5000975;28;20042;-59
2023/02/08 08:10:08;;;;;;;9.35;8.75;;;;;;;;;;4997870;28;20432;-51
2023/02/08 08:12:33;;;;;;;10.35;9.35;;;;;;;;;;4995491;28;20045;-59
2023/02/08 08:14:59;;;;;;;11.25;10.25;;;;;;;;;;4997228;28;20019;-47
2023/02/08 08:17:24;;;;;;;9.98;9.27;;;;;;;;;;4996407;28;20092;-52
2023/02/08 08:19:50;;;;;;;10.52;9.77;;;;;;;;;;4996989;28;20129;-48
2023/02/08 08:22:15;;;;;;;10.68;9.90;;;;;;;;;;4996852;28;20044;-48
2023/02/08 08:24:40;;;;;;;10.10;9.40;;;;;;;;;;4996743;28;20542;-60
2023/02/08 08:27:06;;;;;;;10.88;10.18;;;;;;;;;;4999168;28;20037;-60
2023/02/08 08:29:34;;;;;;;11.25;10.52;;;;;;;;;;4999132;28;20044;-59
2023/02/08 08:31:59;;;;;;;10.57;9.88;;;;;;;;;;4994630;28;20037;-60
2023/02/08 08:34:28;;;;;;;9.65;9.05;;;;;;;;;;4996191;28;20035;-60
2023/02/08 08:36:58;;;;;;;10.13;9.43;;;;;;;;;;4995896;28;20033;-59
2023/02/08 08:39:24;;;;;;;12.05;11.05;;;;;;;;;;5010662;28;20121;-59
2023/02/08 08:41:49;;;;;;;10.13;9.40;;;;;;;;;;4996442;28;20109;-59
2023/02/08 08:44:15;;;;;;;10.23;9.52;;;;;;;;;;4995796;28;20092;-60
2023/02/08 08:46:40;;;;;;;11.20;10.35;;;;;;;;;;4997429;28;20029;-60
2023/02/08 08:49:06;;;;;;;10.88;10.07;;;;;;;;;;4995934;28;20038;-59
2023/02/08 08:51:34;;;;;;;9.80;9.07;;;;;;;;;;4998235;28;20672;-59
2023/02/08 08:54:00;;;;;;;10.82;10.13;;;;;;;;;;4997459;28;20045;-59
2023/02/08 08:56:26;;;;;;;10.45;9.75;;;;;;;;;;4999340;28;20113;-51
2023/02/08 08:58:51;;;;;;;9.68;9.05;;;;;;;;;;4997755;28;20635;-51
2023/02/08 09:01:16;;;;;;;9.75;9.13;;;;;;;;;;4998353;28;20030;-51
2023/02/08 09:03:42;;;;;;;10.02;9.32;;;;;;;;;;4995177;28;20720;-60
2023/02/08 09:06:07;;;;;;;10.25;9.52;;;;;;;;;;4998218;28;20511;-60
2023/02/08 09:08:32;;;;;;;10.75;10.02;;;;;;;;;;4999357;28;20510;-59
2023/02/08 09:11:04;;;;;;;10.48;9.77;;;;;;;;;;4996108;28;20481;-60
2023/02/08 09:13:29;;;;;;;10.30;9.60;;;;;;;;;;4994313;28;20027;-48
2023/02/08 09:15:55;;;;;;;10.68;9.80;;;;;;;;;;4997278;28;20041;-48
2023/02/08 09:18:20;;;;;;;9.38;8.77;;;;;;;;;;4995606;28;20030;-47
2023/02/08 09:20:45;;;;;;;9.57;8.90;;;;;;;;;;4995423;28;20069;-48
2023/02/08 09:23:13;;;;;;;9.93;9.32;;;;;;;;;;4992839;28;20092;-60
2023/02/08 09:25:39;;;;;;;10.10;9.40;;;;;;;;;;4998125;28;20029;-60
2023/02/08 09:28:04;;;;;;;10.73;10.02;;;;;;;;;;4996668;28;20050;-60
2023/02/08 09:30:29;;;;;;;10.48;9.70;;;;;;;;;;4994519;28;20030;-60
2023/02/08 09:32:55;;;;;;;11.55;10.30;;;;;;;;;;4996189;28;20034;-60
2023/02/08 09:35:20;;;;;;;10.20;9.35;;;;;;;;;;4997746;28;20044;-50
2023/02/08 09:37:46;;;;;;;12.00;10.93;;;;;;;;;;4996100;28;20030;-60
2023/02/08 09:40:44;;;;;;;10.05;9.35;;;;;;;;;;4996489;28;20068;-60
2023/02/08 09:43:14;;;;;;;12.30;11.48;;;;;;;;;;4993424;28;20079;-60
2023/02/08 09:45:48;;;;;;;16.45;10.80;;;;;;;;;;4993745;28;20030;-60
2023/02/08 09:48:20;;;;;;;10.52;9.82;;;;;;;;;;4994733;28;20209;-60
2023/02/08 09:50:51;;;;;;;11.07;10.30;;;;;;;;;;4995201;28;20033;-51
2023/02/08 09:53:39;;;;;;;;;;;;;;;;;;4995832;28;20045;-60
2023/02/08 09:56:09;;;;;;;10.90;9.98;;;;;;;;;;4988654;28;19928;-59
2023/02/08 09:59:05;;;;;;;11.63;10.82;;;;;;;;;;4995772;28;20034;-60
2023/02/08 10:01:33;;;;;;;12.00;10.52;;;;;;;;;;4992269;28;20053;-60
2023/02/08 10:04:12;;;;;;;11.82;11.05;;;;;;;;;;4993474;28;20117;-60
2023/02/08 10:06:37;;;;;;;11.10;10.30;;;;;;;;;;4994923;28;20372;-59
2023/02/08 10:09:06;;;;;;;11.65;10.65;;;;;;;;;;4996186;28;20042;-58
2023/02/08 10:11:42;;;;;;;11.18;10.48;;;;;;;;;;4995673;28;20037;-59
2023/02/08 10:14:36;;;;;;;10.93;10.23;;;;;;;;;;4993972;28;20027;-59
2023/02/08 10:17:09;;;;;;;13.30;12.40;;;;;;;;;;4991588;28;20054;-59
2023/02/08 10:20:07;;;;;;;12.45;11.65;;;;;;;;;;4997374;28;20042;-48
2023/02/08 10:22:57;;;;;;;11.85;11.07;;;;;;;;;;4994798;28;20042;-50
2023/02/08 10:25:30;;;;;;;13.38;12.50;;;;;;;;;;4994209;28;20095;-59
2023/02/08 10:28:14;;;;;;;14.18;13.18;;;;;;;;;;4994598;28;20761;-59
2023/02/08 10:31:01;;;;;;;12.73;11.93;;;;;;;;;;4995864;28;20062;-59
2023/02/08 10:33:36;;;;;;;13.35;12.45;;;;;;;;;;4995083;28;20329;-58
2023/02/08 10:36:10;;;;;;;12.82;12.02;;;;;;;;;;4996626;28;20543;-50
2023/02/08 10:38:39;;;;;;;12.30;11.52;;;;;;;;;;4996271;28;20148;-59
2023/02/08 10:41:05;;;;;;;14.40;13.38;;;;;;;;;;4994601;28;20064;-49
2023/02/08 10:43:34;;;;;;;13.60;12.60;;;;;;;;;;4995349;28;20034;-58
2023/02/08 10:46:23;;;;;;;13.35;12.50;;;;;;;;;;5002043;28;20092;-59
2023/02/08 10:49:16;;;;;;;14.02;13.13;;;;;;;;;;4996853;28;20038;-59
2023/02/08 10:51:41;;;;;;;14.13;12.98;;;;;;;;;;4994419;28;20034;-60
2023/02/08 10:54:12;;;;;;;13.35;12.52;;;;;;;;;;4994115;28;20036;-60
2023/02/08 10:56:45;;;;;;;12.93;12.13;;;;;;;;;;4994676;28;20142;-59
2023/02/08 10:59:23;;;;;;;13.77;12.88;;;;;;;;;;4991767;28;20081;-60
2023/02/08 11:01:49;;;;;;;12.40;11.55;;;;;;;;;;4993005;28;20494;-60
2023/02/08 11:04:15;;;;;;;13.68;12.77;;;;;;;;;;4994127;28;20147;-59
2023/02/08 11:06:43;;;;;;;12.68;11.88;;;;;;;;;;4995363;28;20038;-49
2023/02/08 11:09:20;;;;;;;11.80;11.00;;;;;;;;;;5000773;28;20487;-51
2023/02/08 11:11:49;;;;;;;14.38;12.57;;;;;;;;;;5004338;28;20065;-51
2023/02/08 11:14:22;;;;;;;13.27;12.32;;;;;;;;;;4999089;28;20428;-50
2023/02/08 11:16:52;;;;;;;11.90;11.10;;;;;;;;;;4996934;28;20034;-51
2023/02/08 11:19:44;;;;;;;12.38;11.57;;;;;;;;;;4999151;28;20092;-49
2023/02/08 11:22:19;;;;;;;12.40;11.55;;;;;;;;;;4997813;28;20070;-50
2023/02/08 11:24:52;;;;;;;14.10;13.10;;;;;;;;;;4994242;28;20045;-49
2023/02/08 11:27:27;;;;;;;12.65;11.85;;;;;;;;;;4998346;28;20038;-60
2023/02/08 11:30:23;;;;;;;12.63;11.80;;;;;;;;;;4998414;28;20038;-60
2023/02/08 11:33:13;;;;;;;13.65;12.85;;;;;;;;;;4995179;28;20042;-52
2023/02/08 11:35:39;;;;;;;14.02;13.13;;;;;;;;;;4999647;28;20026;-59
2023/02/08 11:38:05;;;;;;;14.45;13.35;;;;;;;;;;4997304;28;20034;-60
2023/02/08 11:40:37;;;;;;;15.63;14.50;;;;;;;;;;4997150;28;20141;-59
2023/02/08 11:43:03;;;;;;;15.65;14.68;;;;;;;;;;4995900;28;20030;-60
2023/02/08 11:45:31;;;;;;;14.77;13.80;;;;;;;;;;4998066;28;20496;-60
2023/02/08 11:48:00;;;;;;;16.60;15.50;;;;;;;;;;4998830;28;20049;-60
2023/02/08 11:50:37;;;;;;;15.82;14.77;;;;;;;;;;5010625;28;20455;-60
2023/02/08 11:53:05;;;;;;;15.80;14.85;;;;;;;;;;4997453;28;20034;-60
2023/02/08 11:55:33;;;;;;;16.60;15.60;;;;;;;;;;4998800;28;20029;-51
2023/02/08 11:58:16;;;;;;;16.95;15.75;;;;;;;;;;4995802;28;20065;-60
2023/02/08 12:00:58;;;;;;;16.98;15.80;;;;;;;;;;4997744;28;20035;-60
2023/02/08 12:03:26;;;;;;;;;;;;;;;;;;4996267;28;20037;-49
2023/02/08 12:06:18;;;;;;;16.38;15.02;;;;;;;;;;4998629;28;19954;-60
2023/02/08 12:09:06;;;;;;;15.95;14.95;;;;;;;;;;5006037;28;20488;-60
2023/02/08 12:11:42;;;;;;;15.15;14.25;;;;;;;;;;4993830;28;20034;-60
2023/02/08 12:14:19;;;;;;;15.02;13.85;;;;;;;;;;4998621;28;20034;-60
2023/02/08 12:16:56;;;;;;;15.77;14.77;;;;;;;;;;5000378;28;20097;-60
2023/02/08 12:19:59;;;;;;;16.55;15.55;;;;;;;;;;4993304;28;20057;-60
2023/02/08 12:22:27;;;;;;;15.75;14.60;;;;;;;;;;4997469;28;20029;-60
2023/02/08 12:24:55;;;;;;;15.52;14.57;;;;;;;;;;4994534;28;20050;-60
2023/02/08 12:27:45;;;;;;;14.80;13.85;;;;;;;;;;4995124;28;20470;-60
2023/02/08 12:30:29;;;;;;;15.75;14.73;;;;;;;;;;4998563;28;20037;-60
2023/02/08 12:33:13;;;;;;;15.48;14.40;;;;;;;;;;4998025;28;20490;-60
2023/02/08 12:36:15;;;;;;;15.63;14.63;;;;;;;;;;4998926;28;20060;-60
2023/02/08 12:41:56;;;;;;;17.05;15.85;;;;;;;;;;5004010;28;20895;-60
2023/02/08 12:44:47;;;;;;;15.82;14.82;;;;;;;;;;4993980;28;20052;-60
2023/02/08 12:47:45;;;;;;;16.02;15.02;;;;;;;;;;4997144;28;20034;-60
2023/02/08 12:50:30;;;;;;;16.27;15.25;;;;;;;;;;4996790;28;20476;-60
2023/02/08 12:53:10;;;;;;;14.30;13.50;;;;;;;;;;4997039;28;20746;-60
2023/02/08 12:55:38;;;;;;;15.90;14.90;;;;;;;;;;4995578;28;20039;-59
2023/02/08 12:58:20;;;;;;;15.40;14.43;;;;;;;;;;4995220;28;20482;-60
2023/02/08 13:00:47;;;;;;;15.07;14.18;;;;;;;;;;4997817;28;20134;-60
2023/02/08 13:03:46;;;;;;;15.18;14.05;;;;;;;;;;4995466;28;20066;-59
2023/02/08 13:06:17;;;;;;;15.23;14.23;;;;;;;;;;4994757;28;20041;-60
2023/02/08 13:08:59;;;;;;;14.98;14.07;;;;;;;;;;4997350;28;20228;-61
2023/02/08 13:12:23;;;;;;;16.95;15.65;;;;;;;;;;4995394;28;20038;-60
2023/02/08 13:14:53;;;;;;;16.20;15.10;;;;;;;;;;4980752;28;20073;-60
2023/02/08 13:17:28;;;;;;;16.23;15.13;;;;;;;;;;4994086;28;20037;-63
2023/02/08 13:20:01;;;;;;;15.85;14.85;;;;;;;;;;4997343;28;20041;-61
2023/02/08 13:22:33;;;;;;;16.85;15.65;;;;;;;;;;4994719;28;20162;-60
2023/02/08 13:25:01;;;;;;;15.88;14.77;;;;;;;;;;4995755;28;20048;-60
2023/02/08 13:27:26;;;;;;;16.40;15.20;;;;;;;;;;4997401;28;20463;-60
2023/02/08 13:29:52;;;;;;;16.08;15.07;;;;;;;;;;4994412;28;20049;-59
2023/02/08 13:32:29;;;;;;;16.33;15.30;;;;;;;;;;4993306;28;20042;-60
2023/02/08 13:35:00;;;;;;;15.10;14.18;;;;;;;;;;4995624;28;20093;-60
2023/02/08 13:37:32;;;;;;;15.45;14.45;;;;;;;;;;4997359;28;20042;-60
2023/02/08 13:40:01;;;;;;;;;;;;;;;;;;4996935;28;20037;-60
2023/02/08 13:42:41;;;;;;;19.00;17.48;;;;;;;;;;4996518;28;19932;-60
2023/02/08 13:45:09;;;;;;;16.08;15.07;;;;;;;;;;5000350;28;20030;-60
2023/02/08 13:47:44;;;;;;;17.10;15.90;;;;;;;;;;4996603;28;20053;-60
2023/02/08 13:50:47;;;;;;;17.83;16.38;;;;;;;;;;4992480;28;20069;-60
2023/02/08 13:53:14;;;;;;;16.50;15.52;;;;;;;;;;4997319;28;20469;-60
2023/02/08 13:55:49;;;;;;;15.63;14.63;;;;;;;;;;4993942;28;20124;-60
2023/02/08 13:58:14;;;;;;;14.88;13.98;;;;;;;;;;4995846;28;20050;-60
2023/02/08 14:00:52;;;;;;;16.65;15.65;;;;;;;;;;4995651;28;20621;-60
2023/02/08 14:03:28;;;;;;;18.83;17.63;;;;;;;;;;4998062;28;20414;-60
2023/02/08 14:06:13;;;;;;;16.75;15.75;;;;;;;;;;4993906;28;20062;-60
2023/02/08 14:08:56;;;;;;;18.45;16.60;;;;;;;;;;4994983;28;20033;-59
2023/02/08 14:11:34;;;;;;;15.90;14.95;;;;;;;;;;4995061;28;20045;-60
2023/02/08 14:14:03;;;;;;;16.52;15.45;;;;;;;;;;4995476;28;20034;-60
2023/02/08 14:16:32;;;;;;;16.95;15.80;;;;;;;;;;4999729;28;20034;-60
2023/02/08 14:19:03;;;;;;;17.10;15.95;;;;;;;;;;4994693;28;20026;-60
2023/02/08 14:21:37;;;;;;;16.35;15.15;;;;;;;;;;4977935;28;20519;-60
2023/02/08 14:24:17;;;;;;;15.90;14.95;;;;;;;;;;4992517;28;20041;-60
2023/02/08 14:26:44;;;;;;;15.00;14.10;;;;;;;;;;4996266;28;20034;-60
2023/02/08 14:29:20;;;;;;;15.27;14.32;;;;;;;;;;4991667;28;20121;-53
2023/02/08 14:31:48;;;;;;;16.30;15.10;;;;;;;;;;4995054;28;20496;-59
2023/02/08 14:34:30;;;;;;;15.88;14.80;;;;;;;;;;4993838;28;20176;-60
2023/02/08 14:37:04;;;;;;;15.65;14.65;;;;;;;;;;4996212;28;20057;-60
2023/02/08 14:39:33;;;;;;;16.42;15.32;;;;;;;;;;4995425;28;20045;-60
2023/02/08 14:42:37;;;;;;;19.25;17.63;;;;;;;;;;4993863;28;20045;-60
2023/02/08 14:45:04;;;;;;;22.75;20.55;;;;;;;;;;4978963;28;20057;-60
2023/02/08 14:47:32;;;;;;;15.05;14.15;;;;;;;;;;4993910;28;20109;-60
2023/02/08 14:50:23;;;;;;;16.52;15.25;;;;;;;;;;4994215;28;20121;-60
2023/02/08 14:52:56;;;;;;;14.05;13.25;;;;;;;;;;4993413;28;20432;-60
2023/02/08 14:55:26;;;;;;;15.32;14.27;;;;;;;;;;4994109;28;20042;-53